createdAt,value
2018-11-22T00:01:55.360Z,55.57
2018-11-22T00:04:22.960Z,51.97
2018-11-22T00:06:50.614Z,51.07
2018-11-22T00:09:18.209Z,50.50
2018-11-22T00:11:45.843Z,51.60
2018-11-22T00:14:13.474Z,48.50
2018-11-22T00:16:44.095Z,45.90
2018-11-22T00:19:11.949Z,49.83
2018-11-22T00:21:39.572Z,47.17
2018-11-22T00:24:07.212Z,52.60
2018-11-22T00:26:35.017Z,47.90
2018-11-22T00:29:02.622Z,54.67
2018-11-22T00:31:30.216Z,49.30
2018-11-22T00:33:57.819Z,54.03
2018-11-22T00:36:25.392Z,47.70
2018-11-22T00:38:53.001Z,48.83
2018-11-22T00:41:20.596Z,51.17
2018-11-22T00:43:48.214Z,46.57
2018-11-22T00:46:15.863Z,49.83
2018-11-22T00:48:43.478Z,47.40
2018-11-22T00:51:11.062Z,50.67
2018-11-22T00:53:38.702Z,49.33
2018-11-22T00:56:06.323Z,54.80
2018-11-22T00:58:33.974Z,48.53
2018-11-22T01:01:01.638Z,51.43
2018-11-22T01:03:29.393Z,47.47
2018-11-22T01:05:57.117Z,51.53
2018-11-22T01:08:24.802Z,46.60
2018-11-22T01:10:52.439Z,52.80
2018-11-22T01:13:20.105Z,48.73
2018-11-22T01:15:47.868Z,52.07
2018-11-22T01:18:15.559Z,49.40
2018-11-22T01:20:43.188Z,49.83
2018-11-22T01:23:10.823Z,51.70
2018-11-22T01:25:38.452Z,45.43
2018-11-22T01:28:06.048Z,49.30
2018-11-22T01:30:33.620Z,55.47
2018-11-22T01:33:01.162Z,51.90
2018-11-22T01:35:28.751Z,51.77
2018-11-22T01:37:56.325Z,49.03
2018-11-22T01:40:24.659Z,53.10
2018-11-22T01:42:52.282Z,52.97
2018-11-22T01:45:21.293Z,51.53
2018-11-22T01:47:49.255Z,50.93
2018-11-22T01:50:17.432Z,53.17
2018-11-22T01:52:45.166Z,52.53
2018-11-22T01:55:14.064Z,55.47
2018-11-22T01:57:42.242Z,51.40
2018-11-22T02:00:15.548Z,50.67
2018-11-22T02:02:43.162Z,49.43
2018-11-22T02:05:12.548Z,55.27
2018-11-22T02:07:40.207Z,50.70
2018-11-22T02:10:10.492Z,54.70
2018-11-22T02:12:38.212Z,54.17
2018-11-22T02:15:08.826Z,51.53
2018-11-22T02:17:36.366Z,52.73
2018-11-22T02:20:10.580Z,52.67
2018-11-22T02:22:38.335Z,52.47
2018-11-22T02:25:07.497Z,53.90
2018-11-22T02:27:36.107Z,53.80
2018-11-22T02:30:11.653Z,49.87
2018-11-22T02:32:39.599Z,45.83
2018-11-22T02:35:08.239Z,49.07
2018-11-22T02:37:36.065Z,47.93
2018-11-22T02:40:04.734Z,47.43
2018-11-22T02:42:32.543Z,47.80
2018-11-22T02:45:00.210Z,49.57
2018-11-22T02:47:27.825Z,46.77
2018-11-22T02:49:55.451Z,47.73
2018-11-22T02:52:23.071Z,49.60
2018-11-22T02:54:50.768Z,49.80
2018-11-22T02:57:18.345Z,50.03
2018-11-22T02:59:45.946Z,51.83
2018-11-22T03:02:13.494Z,55.83
2018-11-22T03:04:41.146Z,57.77
2018-11-22T03:07:08.960Z,50.70
2018-11-22T03:09:36.601Z,49.30
2018-11-22T03:12:04.890Z,52.50
2018-11-22T03:14:32.482Z,50.53
2018-11-22T03:17:00.012Z,53.83
2018-11-22T03:19:27.825Z,56.10
2018-11-22T03:21:55.414Z,54.63
2018-11-22T03:24:23.197Z,50.93
2018-11-22T03:26:50.798Z,55.63
2018-11-22T03:29:18.505Z,57.37
2018-11-22T03:31:46.100Z,54.53
2018-11-22T03:34:13.668Z,57.37
2018-11-22T03:36:41.316Z,58.23
2018-11-22T03:39:09.600Z,60.17
2018-11-22T03:41:37.363Z,59.73
2018-11-22T03:44:05.154Z,58.07
2018-11-22T03:46:32.862Z,51.90
2018-11-22T03:49:00.469Z,63.20
2018-11-22T03:51:28.091Z,60.03
2018-11-22T03:53:56.004Z,58.40
2018-11-22T03:56:23.714Z,55.57
2018-11-22T03:58:54.365Z,58.70
2018-11-22T04:01:20.377Z,57.50
2018-11-22T04:03:47.996Z,61.43
2018-11-22T04:06:15.615Z,57.80
2018-11-22T04:08:43.378Z,61.80
2018-11-22T04:11:10.953Z,59.87
2018-11-22T04:13:38.534Z,61.77
2018-11-22T04:16:06.254Z,61.63
2018-11-22T04:18:33.819Z,60.50
2018-11-22T04:21:01.428Z,57.87
2018-11-22T04:23:29.201Z,58.43
2018-11-22T04:25:56.868Z,62.90
2018-11-22T04:28:24.453Z,58.57
2018-11-22T04:30:52.143Z,61.87
2018-11-22T04:33:19.781Z,61.53
2018-11-22T04:35:47.451Z,57.90
2018-11-22T04:38:15.250Z,67.30
2018-11-22T04:40:42.980Z,62.50
2018-11-22T04:43:10.789Z,58.70
2018-11-22T04:45:38.417Z,56.53
2018-11-22T04:48:06.031Z,59.60
2018-11-22T04:50:35.360Z,57.00
2018-11-22T04:53:03.233Z,55.97
2018-11-22T04:55:30.966Z,59.37
2018-11-22T04:57:58.649Z,59.97
2018-11-22T05:00:26.806Z,58.53
2018-11-22T05:02:54.427Z,58.07
2018-11-22T05:05:29.964Z,64.23
2018-11-22T05:07:57.770Z,63.47
2018-11-22T05:10:26.576Z,57.77
2018-11-22T05:12:54.570Z,56.37
2018-11-22T05:15:26.889Z,64.77
2018-11-22T05:17:54.576Z,58.20
2018-11-22T05:20:23.069Z,61.30
2018-11-22T05:22:51.244Z,57.20
2018-11-22T05:25:21.516Z,61.17
2018-11-22T05:27:49.560Z,60.50
2018-11-22T05:30:27.982Z,58.20
2018-11-22T05:32:55.927Z,61.87
2018-11-22T05:35:23.758Z,61.97
2018-11-22T05:37:51.395Z,60.33
2018-11-22T05:40:25.351Z,64.93
2018-11-22T05:42:51.540Z,65.77
2018-11-22T05:45:26.724Z,60.27
2018-11-22T05:47:55.246Z,62.70
2018-11-22T05:50:27.155Z,61.23
2018-11-22T05:52:56.418Z,59.03
2018-11-22T05:57:51.773Z,63.17
2018-11-22T06:00:24.089Z,57.93
2018-11-22T06:02:52.928Z,65.97
2018-11-22T06:05:22.271Z,61.57
2018-11-22T06:07:50.050Z,66.90
2018-11-22T06:10:19.335Z,58.40
2018-11-22T06:12:47.514Z,64.57
2018-11-22T06:15:15.558Z,62.10
2018-11-22T06:17:43.800Z,62.50
2018-11-22T06:20:19.628Z,61.70
2018-11-22T06:22:47.932Z,60.53
2018-11-22T06:25:17.487Z,64.63
2018-11-22T06:27:47.433Z,64.60
2018-11-22T06:30:26.741Z,59.00
2018-11-22T06:32:55.701Z,58.47
2018-11-22T06:35:23.665Z,63.03
2018-11-22T06:37:51.485Z,62.83
2018-11-22T06:40:19.327Z,60.13
2018-11-22T06:42:48.393Z,60.00
2018-11-22T06:45:23.883Z,62.00
2018-11-22T06:47:52.851Z,58.77
2018-11-22T06:50:21.637Z,56.60
2018-11-22T06:52:49.311Z,61.40
2018-11-22T06:55:18.407Z,61.93
2018-11-22T06:57:46.004Z,62.50
2018-11-22T07:00:15.841Z,62.83
2018-11-22T07:02:43.623Z,58.67
2018-11-22T07:05:12.055Z,63.50
2018-11-22T07:07:41.786Z,59.40
2018-11-22T07:10:09.798Z,62.33
2018-11-22T07:12:43.588Z,62.67
2018-11-22T07:15:14.931Z,68.93
2018-11-22T07:17:44.117Z,63.67
2018-11-22T07:20:19.473Z,64.97
2018-11-22T07:22:47.942Z,64.60
2018-11-22T07:25:18.212Z,59.60
2018-11-22T07:27:47.243Z,60.25
2018-11-22T07:30:15.901Z,70.83
2018-11-22T07:32:43.752Z,62.30
2018-11-22T07:35:12.339Z,58.93
2018-11-22T07:37:40.529Z,65.10
2018-11-22T07:40:17.357Z,64.90
2018-11-22T07:42:50.586Z,60.07
2018-11-22T07:45:14.446Z,60.23
2018-11-22T07:47:42.539Z,60.83
2018-11-22T07:50:12.206Z,55.10
2018-11-22T07:52:39.759Z,62.03
2018-11-22T07:55:09.319Z,59.73
2018-11-22T07:57:36.886Z,61.60
2018-11-22T08:00:11.992Z,59.93
2018-11-22T08:02:40.117Z,55.77
2018-11-22T08:05:08.542Z,57.97
2018-11-22T08:07:36.154Z,59.67
2018-11-22T08:10:05.346Z,61.17
2018-11-22T08:12:33.023Z,62.03
2018-11-22T12:16:14.730Z,51.17
2018-11-22T12:18:42.992Z,55.03
2018-11-22T12:21:11.264Z,59.47
2018-11-22T12:23:39.523Z,52.33
2018-11-22T12:26:07.779Z,49.77
2018-11-22T12:28:36.117Z,52.03
2018-11-22T12:31:06.598Z,61.63
2018-11-22T12:33:39.330Z,55.00
2018-11-22T12:36:13.415Z,67.20
2018-11-22T12:38:42.828Z,54.83
2018-11-22T12:41:11.077Z,56.17
2018-11-22T12:43:39.375Z,61.00
2018-11-22T12:46:07.678Z,55.43
2018-11-22T12:48:35.959Z,51.90
2018-11-22T12:51:04.355Z,60.00
2018-11-22T12:53:32.641Z,56.57
2018-11-22T12:56:00.894Z,49.07
2018-11-22T12:58:29.171Z,54.20
2018-11-22T13:00:58.201Z,51.20
2018-11-22T13:03:26.497Z,52.67
2018-11-22T13:05:55.896Z,51.63
2018-11-22T13:08:24.157Z,64.47
2018-11-22T13:10:52.434Z,58.73
2018-11-22T13:13:20.668Z,62.67
2018-11-22T13:15:48.893Z,61.57
2018-11-22T13:18:17.103Z,55.40
2018-11-22T13:20:45.458Z,55.13
2018-11-22T13:23:13.875Z,57.40
2018-11-22T13:25:42.104Z,49.33
2018-11-22T13:28:10.414Z,53.80
2018-11-22T13:30:38.657Z,53.27
2018-11-22T13:33:06.996Z,49.37
2018-11-22T13:35:35.337Z,52.53
2018-11-22T13:38:03.642Z,52.63
2018-11-22T13:40:32.601Z,54.50
2018-11-22T13:43:00.954Z,54.13
2018-11-22T13:45:29.249Z,55.80
2018-11-22T13:47:58.470Z,54.00
2018-11-22T13:50:28.324Z,52.23
2018-11-22T13:53:01.295Z,52.53
2018-11-22T13:55:30.351Z,51.83
2018-11-22T13:57:59.805Z,45.47
2018-11-22T14:00:29.663Z,49.10
2018-11-22T14:02:59.791Z,51.67
2018-11-22T14:05:28.238Z,54.27
2018-11-22T14:07:57.320Z,57.37
2018-11-22T14:10:25.648Z,47.00
2018-11-22T14:12:54.022Z,49.33
2018-11-22T14:15:26.505Z,46.70
2018-11-22T14:17:56.315Z,52.40
2018-11-22T14:20:29.145Z,49.30
2018-11-22T14:22:57.455Z,49.77
2018-11-22T14:25:25.704Z,49.73
2018-11-22T14:27:53.949Z,53.23
2018-11-22T14:30:30.499Z,49.90
2018-11-22T14:32:58.724Z,50.17
2018-11-22T14:35:27.180Z,55.27
2018-11-22T14:38:00.114Z,47.03
2018-11-22T14:40:29.797Z,50.03
2018-11-22T14:42:58.076Z,49.97
2018-11-22T14:45:26.983Z,49.10
2018-11-22T14:47:56.538Z,48.37
2018-11-22T14:50:32.715Z,47.13
2018-11-22T14:53:13.012Z,49.50
2018-11-22T14:55:41.248Z,46.23
2018-11-22T14:58:09.921Z,45.90
2018-11-22T15:00:38.201Z,52.77
2018-11-22T15:03:06.594Z,47.23
2018-11-22T15:05:35.122Z,50.23
2018-11-22T15:08:03.428Z,47.03
2018-11-22T15:10:31.662Z,48.77
2018-11-22T15:12:59.932Z,50.33
2018-11-22T15:15:28.863Z,52.17
2018-11-22T15:17:57.126Z,48.27
2018-11-22T15:20:25.412Z,52.53
2018-11-22T15:22:54.206Z,49.83
2018-11-22T15:25:23.905Z,52.80
2018-11-22T15:27:52.294Z,51.03
2018-11-22T15:30:24.016Z,48.80
2018-11-22T15:32:52.278Z,51.27
2018-11-22T15:35:21.806Z,48.13
2018-11-22T15:37:50.484Z,47.13
2018-11-22T15:40:20.177Z,49.20
2018-11-22T15:42:49.786Z,51.87
2018-11-22T15:45:19.520Z,50.07
2018-11-22T15:47:48.080Z,51.13
2018-11-22T15:50:20.688Z,48.97
2018-11-22T15:52:49.039Z,50.40
2018-11-22T15:55:20.991Z,50.07
2018-11-22T15:57:47.318Z,46.57
2018-11-22T16:00:24.088Z,50.23
2018-11-22T16:02:53.000Z,46.43
2018-11-22T16:05:21.803Z,48.57
2018-11-22T16:07:50.076Z,49.40
2018-11-22T16:10:26.312Z,51.00
2018-11-22T16:12:52.475Z,43.87
2018-11-22T16:15:31.513Z,44.83
2018-11-22T16:17:59.762Z,48.03
2018-11-22T16:20:28.024Z,45.87
2018-11-22T16:22:56.355Z,46.67
2018-11-22T16:25:24.593Z,45.33
2018-11-22T16:27:52.903Z,49.77
2018-11-22T16:30:25.750Z,49.43
2018-11-22T16:32:54.038Z,48.43
2018-11-22T16:35:23.013Z,46.90
2018-11-22T16:37:51.294Z,50.27
2018-11-22T16:40:28.111Z,46.87
2018-11-22T16:42:57.532Z,49.93
2018-11-22T16:45:29.918Z,46.03
2018-11-22T16:47:59.598Z,45.90
2018-11-22T16:50:28.949Z,48.63
2018-11-22T16:52:57.176Z,45.13
2018-11-22T16:55:26.026Z,46.07
2018-11-22T16:57:55.125Z,48.43
2018-11-22T17:00:25.746Z,46.57
2018-11-22T17:02:55.218Z,50.93
2018-11-22T17:05:23.929Z,48.30
2018-11-22T17:07:52.201Z,49.57
2018-11-22T17:10:21.971Z,49.60
2018-11-22T17:12:51.562Z,49.80
2018-11-22T17:15:21.057Z,48.93
2018-11-22T17:17:49.933Z,48.83
2018-11-22T17:20:19.246Z,46.37
2018-11-22T17:22:51.711Z,47.83
2018-11-22T17:25:21.369Z,47.93
2018-11-22T17:27:51.149Z,49.20
2018-11-22T17:30:21.216Z,47.20
2018-11-22T17:32:50.545Z,48.27
2018-11-22T17:35:20.371Z,49.93
2018-11-22T17:37:48.757Z,53.70
2018-11-22T17:40:20.790Z,52.40
2018-11-22T17:42:49.123Z,53.83
2018-11-22T17:45:25.751Z,50.40
2018-11-22T17:47:54.028Z,49.67
2018-11-22T17:50:24.695Z,54.03
2018-11-22T17:52:52.940Z,53.67
2018-11-22T17:55:22.519Z,55.37
2018-11-22T17:57:50.801Z,48.43
2018-11-22T18:00:21.082Z,51.03
2018-11-22T18:02:50.513Z,51.10
2018-11-22T18:05:18.810Z,52.70
2018-11-22T18:07:47.013Z,55.30
2018-11-22T18:10:16.911Z,54.50
2018-11-22T18:12:46.014Z,54.97
2018-11-22T18:15:15.615Z,54.33
2018-11-22T18:17:43.914Z,58.67
2018-11-22T18:20:16.493Z,52.30
2018-11-22T18:22:45.172Z,60.67
2018-11-22T18:25:14.761Z,53.73
2018-11-22T18:27:42.985Z,59.77
2018-11-22T18:30:16.215Z,53.10
2018-11-22T18:32:45.976Z,51.97
2018-11-22T18:35:14.689Z,56.53
2018-11-22T18:37:42.983Z,56.43
2018-11-22T18:40:16.675Z,58.27
2018-11-22T18:42:45.851Z,62.30
2018-11-22T18:45:15.542Z,58.23
2018-11-22T18:47:44.932Z,55.10
2018-11-22T18:50:17.239Z,58.47
2018-11-22T18:52:46.732Z,54.67
2018-11-22T18:55:15.094Z,57.80
2018-11-22T18:57:43.886Z,53.03
2018-11-22T19:00:19.551Z,54.47
2018-11-22T19:02:47.847Z,57.47
2018-11-22T19:05:16.773Z,57.47
2018-11-22T19:07:47.067Z,60.10
2018-11-22T19:10:17.819Z,58.97
2018-11-22T19:12:47.494Z,53.87
2018-11-22T19:15:17.454Z,58.10
2018-11-22T19:17:46.042Z,59.07
2018-11-22T19:20:20.034Z,57.47
2018-11-22T19:22:49.026Z,51.10
2018-11-22T19:25:17.972Z,58.73
2018-11-22T19:27:47.582Z,53.20
2018-11-22T19:30:21.659Z,59.57
2018-11-22T19:32:51.101Z,57.40
2018-11-22T19:35:21.015Z,61.37
2018-11-22T19:37:49.915Z,55.67
2018-11-22T19:40:22.896Z,56.80
2018-11-22T19:42:52.606Z,58.50
2018-11-22T19:45:22.404Z,60.80
2018-11-22T19:47:50.823Z,56.87
2018-11-22T19:50:20.540Z,61.83
2018-11-22T19:52:49.588Z,56.07
2018-11-22T19:55:19.214Z,58.20
2018-11-22T19:57:49.419Z,59.57
2018-11-22T20:00:18.557Z,58.00
2018-11-22T20:02:47.314Z,59.80
2018-11-22T20:05:16.668Z,59.67
2018-11-22T20:07:46.480Z,57.63
2018-11-22T20:10:20.323Z,58.80
2018-11-22T20:12:49.689Z,60.73
2018-11-22T20:15:18.857Z,58.20
2018-11-22T20:17:48.134Z,58.97
2018-11-22T20:20:20.331Z,60.57
2018-11-22T20:22:53.037Z,57.20
2018-11-22T20:25:21.280Z,55.83
2018-11-22T20:27:51.121Z,65.20
2018-11-22T20:30:24.136Z,56.87
2018-11-22T20:32:54.566Z,59.47
2018-11-22T20:35:23.100Z,52.33
2018-11-22T20:37:52.113Z,57.33
2018-11-22T20:40:24.532Z,60.03
2018-11-22T20:42:53.096Z,57.53
2018-11-22T20:45:23.231Z,55.77
2018-11-22T20:47:53.535Z,59.23
2018-11-22T20:50:23.110Z,52.93
2018-11-22T20:52:52.200Z,54.53
2018-11-22T20:55:23.982Z,55.33
2018-11-22T20:57:53.713Z,59.43
2018-11-22T21:00:23.317Z,51.47
2018-11-22T21:02:51.570Z,59.23
2018-11-22T21:05:20.550Z,54.77
2018-11-22T21:07:48.930Z,57.83
2018-11-22T21:10:18.796Z,54.57
2018-11-22T21:12:47.078Z,58.93
2018-11-22T21:15:25.797Z,56.50
2018-11-22T21:17:55.851Z,55.73
2018-11-22T21:20:28.214Z,51.23
2018-11-22T21:22:57.043Z,52.37
2018-11-22T21:25:25.920Z,51.43
2018-11-22T21:27:55.025Z,52.57
2018-11-22T21:30:26.259Z,57.83
2018-11-22T21:32:54.858Z,55.43
2018-11-22T21:35:23.195Z,59.37
2018-11-22T21:37:52.798Z,50.57
2018-11-22T21:40:21.626Z,53.30
2018-11-22T21:42:49.898Z,51.33
2018-11-22T21:45:19.614Z,54.90
2018-11-22T21:47:47.846Z,55.83
2018-11-22T21:50:17.569Z,55.33
2018-11-22T21:52:45.757Z,51.57
2018-11-22T21:55:16.130Z,55.57
2018-11-22T21:57:45.367Z,57.93
2018-11-22T22:00:24.997Z,56.10
2018-11-22T22:02:57.255Z,52.67
2018-11-22T22:05:25.526Z,51.00
2018-11-22T22:07:53.761Z,53.67
2018-11-22T22:10:21.983Z,55.03
2018-11-22T22:12:50.383Z,58.77
2018-11-22T22:15:20.170Z,53.47
2018-11-22T22:17:48.711Z,51.10
2018-11-22T22:20:19.247Z,56.53
2018-11-22T22:22:47.522Z,54.27
2018-11-22T22:25:16.990Z,47.90
2018-11-22T22:27:45.842Z,54.73
2018-11-22T22:30:18.694Z,51.13
2018-11-22T22:32:47.839Z,53.20
2018-11-22T22:35:16.014Z,53.93
2018-11-22T22:37:44.298Z,53.60
2018-11-22T22:40:16.748Z,51.03
2018-11-22T22:42:45.858Z,49.00
2018-11-22T22:45:14.989Z,46.77
2018-11-22T22:47:43.979Z,50.50
2018-11-22T22:50:15.590Z,55.03
2018-11-22T22:52:44.416Z,52.13
2018-11-22T22:55:13.062Z,47.20
2018-11-22T22:57:41.589Z,55.77
2018-11-22T23:00:23.614Z,57.00
2018-11-22T23:02:53.236Z,52.17
2018-11-22T23:05:21.983Z,58.53
2018-11-22T23:07:50.316Z,50.37
2018-11-22T23:10:19.258Z,49.97
2018-11-22T23:12:47.455Z,54.43
2018-11-22T23:15:16.513Z,53.77
2018-11-22T23:17:44.745Z,53.90
2018-11-22T23:20:16.105Z,52.70
2018-11-22T23:22:44.975Z,50.93
2018-11-22T23:25:13.891Z,57.57
2018-11-22T23:27:42.119Z,51.00
2018-11-22T23:30:14.047Z,58.37
2018-11-22T23:32:43.259Z,55.37
2018-11-22T23:35:11.441Z,53.60
2018-11-22T23:37:39.813Z,48.63
2018-11-22T23:40:11.380Z,54.37
2018-11-22T23:42:40.415Z,51.10
2018-11-22T23:45:10.563Z,49.20
2018-11-22T23:47:39.386Z,54.37
2018-11-22T23:50:11.875Z,54.07
2018-11-22T23:52:40.547Z,53.63
2018-11-22T23:55:08.982Z,54.00
2018-11-22T23:57:37.397Z,56.33
